Aérodrome :







RETROUVEZ-NOUS SUR...

 
LOGIN :

S'inscrire | Disclaimer

   EN    FR    IT 

 









Légende :    VFR   VFR Marginal   IFR   IFR Intensif   IFR Très Intensif
Visi : 
Plafond : 
>= 8 km
>= 3000ft
5 à 8 km
1000 à 3000 ft
1500m à 5 km
500 à 1000 ft
800 à 1500m
200 à 500 ft
< 800m
< 200 ft
Symboles :   Orages  Brouillard  Fortes neiges  Fortes précipitations  Vent > 20 kt






- Altitude de l'aérodrome : 29 ft
- Code IATA : CUR


TNCC - Willemstad/Hato Int.

DERNIER METAR :
  • 281700Z 08013KT 9999 FEW026 33/26 Q1011 NOSIG

METARs EXPIRÉS :
  • 281600Z 10011KT 9999 FEW026 32/26 Q1012 NOSIG
  • 281500Z 09012KT 9999 FEW025 32/25 Q1012 NOSIG

TAF TAF TNCC
Valide du 28 à 12h jusqu'au 29 à 12h UTC


281115Z 2812/2912 11012KT 9999 FEW020
PROB30
TEMPO 2906/2912 3000 TSRA FEW012CB BKN014
FIR TNCF / Amérique du Nord



MET'MAP, la Météo Aéronautique d'un coup d'oeil ! - Copyright ORBIFLY Décembre 2007 - Disclaimer

ORBIFLY MET'MAP TEAM :

Programmation & Développement : Alexandra Zaïnal
Sur une idée originale de : Baudouin d'Aumeries
Assistance à la programmation : Marc-Olivier Méhu
Soutien technique & logistique : Manuel Goepfert

Contact : metmap@orbifly.com




SOURCES & CREDITS :

   NOAA